createdAt,value
2023-02-22T00:01:47.564Z,101306.50
2023-02-22T00:04:19.367Z,101311.03
2023-02-22T00:06:47.298Z,101301.34
2023-02-22T00:09:20.456Z,101301.28
2023-02-22T00:11:48.748Z,101298.63
2023-02-22T00:14:20.269Z,101287.97
2023-02-22T00:16:48.265Z,101285.38
2023-02-22T00:19:17.481Z,101288.09
2023-02-22T00:21:45.354Z,101281.88
2023-02-22T00:24:23.667Z,101283.59
2023-02-22T00:26:52.501Z,101272.97
2023-02-22T00:29:21.858Z,101272.09
2023-02-22T00:31:52.176Z,101275.56
2023-02-22T00:34:23.374Z,101278.16
2023-02-22T00:36:51.383Z,101277.25
2023-02-22T00:39:19.260Z,101272.72
2023-02-22T00:41:47.130Z,101270.94
2023-02-22T00:44:15.034Z,101269.16
2023-02-22T00:46:42.890Z,101274.47
2023-02-22T00:49:11.020Z,101267.31
2023-02-22T00:51:40.289Z,101267.28
2023-02-22T00:54:08.163Z,101260.28
2023-02-22T00:56:36.122Z,101270.69
2023-02-22T00:59:04.041Z,101259.19
2023-02-22T01:01:32.227Z,101264.50
2023-02-22T01:04:00.254Z,101261.97
2023-02-22T01:06:29.336Z,101254.91
2023-02-22T01:08:58.574Z,101258.50
2023-02-22T01:11:26.449Z,101243.44
2023-02-22T01:13:55.369Z,101247.91
2023-02-22T01:16:23.295Z,101242.53
2023-02-22T01:18:51.290Z,101243.44
2023-02-22T01:21:19.243Z,101240.72
2023-02-22T01:23:47.901Z,101241.50
2023-02-22T01:26:17.177Z,101247.00
2023-02-22T01:28:45.076Z,101237.25
2023-02-22T01:31:13.633Z,101239.91
2023-02-22T01:33:41.737Z,101234.56
2023-02-22T01:36:11.472Z,101236.19
2023-02-22T01:38:39.652Z,101234.41
2023-02-22T01:41:07.536Z,101237.03
2023-02-22T01:43:36.782Z,101235.22
2023-02-22T01:46:05.041Z,101233.44
2023-02-22T01:48:38.534Z,101232.53
2023-02-22T01:51:10.848Z,101223.59
2023-02-22T01:53:41.503Z,101221.88
2023-02-22T01:56:09.398Z,101224.53
2023-02-22T01:58:40.926Z,101213.91
2023-02-22T02:01:08.847Z,101208.59
2023-02-22T02:03:37.510Z,101212.06
2023-02-22T02:06:06.572Z,101204.09
2023-02-22T02:08:37.230Z,101215.56
2023-02-22T02:11:08.687Z,101207.50
2023-02-22T02:13:38.533Z,101214.56
2023-02-22T02:16:06.763Z,101199.59
2023-02-22T02:18:34.646Z,101203.97
2023-02-22T02:21:35.003Z,101204.84
2023-02-22T02:24:34.473Z,101196.06
2023-02-22T02:27:16.382Z,101190.78
2023-02-22T02:30:12.664Z,101193.44
2023-02-22T02:32:53.876Z,101182.97
2023-02-22T02:35:26.417Z,101183.13
2023-02-22T02:37:57.560Z,101185.63
2023-02-22T02:40:26.820Z,101185.63
2023-02-22T02:42:59.246Z,101189.19
2023-02-22T02:45:29.385Z,101170.88
2023-02-22T02:48:01.567Z,101176.94
2023-02-22T02:50:31.264Z,101175.22
2023-02-22T02:53:01.341Z,101183.13
2023-02-22T02:55:29.668Z,101179.53
2023-02-22T02:57:57.562Z,101178.69
2023-02-22T03:00:27.115Z,101176.13
2023-02-22T03:03:03.371Z,101174.34
2023-02-22T03:05:43.552Z,101179.59
2023-02-22T03:08:14.046Z,101175.31
2023-02-22T03:10:50.407Z,101170.88
2023-02-22T03:13:21.342Z,101165.59
2023-02-22T03:15:52.553Z,101175.13
2023-02-22T03:18:29.050Z,101162.81
2023-02-22T03:21:00.642Z,101158.56
2023-02-22T03:23:30.335Z,101160.34
2023-02-22T03:26:00.432Z,101169.13
2023-02-22T03:28:28.537Z,101155.88
2023-02-22T03:30:59.105Z,101160.38
2023-02-22T03:33:33.695Z,101154.16
2023-02-22T03:36:04.235Z,101148.81
2023-02-22T03:38:33.400Z,101152.34
2023-02-22T03:41:02.404Z,101145.19
2023-02-22T03:43:31.703Z,101133.72
2023-02-22T03:45:59.705Z,101141.53
2023-02-22T03:48:32.733Z,101137.81
2023-02-22T03:51:04.483Z,101135.94
2023-02-22T03:53:32.427Z,101132.56
2023-02-22T03:56:00.327Z,101132.25
2023-02-22T03:58:29.067Z,101129.47
2023-02-22T04:00:57.195Z,101134.66
2023-02-22T04:03:25.106Z,101129.19
2023-02-22T04:05:56.004Z,101123.84
2023-02-22T04:08:23.969Z,101129.19
2023-02-22T04:10:51.875Z,101125.69
2023-02-22T04:13:19.744Z,101130.41
2023-02-22T04:15:47.806Z,101127.97
2023-02-22T04:18:15.690Z,101139.69
2023-02-22T04:20:44.745Z,101140.84
2023-02-22T04:23:14.024Z,101143.66
2023-02-22T04:25:41.903Z,101132.16
2023-02-22T04:28:09.777Z,101134.53
2023-02-22T04:30:37.782Z,101129.13
2023-02-22T04:33:05.711Z,101127.16
2023-02-22T04:35:35.473Z,101132.31
2023-02-22T04:38:04.328Z,101125.13
2023-02-22T04:40:33.605Z,101130.63
2023-02-22T04:43:01.534Z,101133.25
2023-02-22T04:45:29.424Z,101127.16
2023-02-22T04:47:57.969Z,101132.50
2023-02-22T04:50:25.973Z,101133.47
2023-02-22T04:52:53.865Z,101139.78
2023-02-22T04:55:22.511Z,101135.41
2023-02-22T04:57:51.801Z,101146.91
2023-02-22T05:00:21.806Z,101138.06
2023-02-22T05:02:49.999Z,101144.31
2023-02-22T05:05:18.288Z,101153.97
2023-02-22T05:07:46.167Z,101148.72
2023-02-22T05:10:14.302Z,101152.25
2023-02-22T05:12:42.176Z,101152.09
2023-02-22T05:15:11.907Z,101157.44
2023-02-22T05:17:39.750Z,101173.47
2023-02-22T05:20:08.657Z,101164.56
2023-02-22T05:22:37.275Z,101169.06
2023-02-22T05:25:05.467Z,101166.53
2023-02-22T05:27:33.364Z,101173.63
2023-02-22T05:30:01.224Z,101171.94
2023-02-22T05:32:30.494Z,101172.81
2023-02-22T05:34:58.369Z,101178.22
2023-02-22T05:37:26.326Z,101183.69
2023-02-22T05:39:55.715Z,101175.88
2023-02-22T05:42:23.665Z,101176.00
2023-02-22T05:44:51.633Z,101190.41
2023-02-22T05:47:19.542Z,101179.81
2023-02-22T05:49:48.808Z,101183.44
2023-02-22T05:52:16.668Z,101182.66
2023-02-22T05:54:44.540Z,101181.78
2023-02-22T05:57:12.412Z,101188.03
2023-02-22T05:59:40.612Z,101188.94
2023-02-22T06:02:08.597Z,101191.75
2023-02-22T06:04:36.548Z,101187.34
2023-02-22T06:07:06.519Z,101180.28
2023-02-22T06:09:34.399Z,101192.72
2023-02-22T06:12:02.297Z,101201.50
2023-02-22T06:14:30.171Z,101205.03
2023-02-22T06:16:58.602Z,101207.72
2023-02-22T06:19:26.470Z,101209.47
2023-02-22T06:21:54.982Z,101209.41
2023-02-22T06:24:24.348Z,101214.78
2023-02-22T06:26:56.931Z,101209.56
2023-02-22T06:29:25.102Z,101225.59
2023-02-22T06:31:53.066Z,101227.38
2023-02-22T06:34:21.976Z,101235.38
2023-02-22T06:36:49.871Z,101236.47
2023-02-22T06:39:18.912Z,101230.38
2023-02-22T06:41:50.538Z,101238.41
2023-02-22T06:44:18.432Z,101234.00
2023-02-22T06:46:48.479Z,101242.16
2023-02-22T06:49:16.398Z,101244.28
2023-02-22T06:51:44.232Z,101242.66
2023-02-22T06:54:12.094Z,101242.94
2023-02-22T06:56:40.033Z,101255.50
2023-02-22T06:59:09.522Z,101260.13
2023-02-22T07:01:37.471Z,101270.03
2023-02-22T07:04:05.615Z,101265.84
2023-02-22T07:06:33.460Z,101280.09
2023-02-22T07:09:01.335Z,101284.66
2023-02-22T07:11:29.362Z,101286.81
2023-02-22T07:13:57.258Z,101293.44
2023-02-22T07:16:26.579Z,101291.06
2023-02-22T07:18:54.711Z,101299.16
2023-02-22T07:21:22.556Z,101300.19
2023-02-22T07:23:54.116Z,101306.56
2023-02-22T07:26:22.031Z,101319.03
2023-02-22T07:28:50.022Z,101318.34
2023-02-22T07:31:18.996Z,101317.53
2023-02-22T07:33:48.617Z,101304.22
2023-02-22T07:36:17.949Z,101318.50
2023-02-22T07:38:45.884Z,101324.63
2023-02-22T07:41:13.790Z,101330.72
2023-02-22T07:43:41.735Z,101335.84
2023-02-22T07:46:09.647Z,101337.47
2023-02-22T07:48:37.819Z,101341.00
2023-02-22T07:51:07.390Z,101336.44
2023-02-22T07:53:35.334Z,101345.16
2023-02-22T07:56:05.170Z,101343.28
2023-02-22T07:58:33.429Z,101352.84
2023-02-22T08:01:03.738Z,101348.25
2023-02-22T08:03:34.316Z,101363.16
2023-02-22T08:06:03.063Z,101356.16
2023-02-22T08:08:32.348Z,101363.44
2023-02-22T08:11:00.222Z,101352.69
2023-02-22T08:13:28.166Z,101366.84
2023-02-22T08:15:56.258Z,101364.03
2023-02-22T08:18:24.674Z,101364.00
2023-02-22T08:20:53.031Z,101363.03
2023-02-22T08:23:21.284Z,101359.41
2023-02-22T08:25:50.521Z,101365.44
2023-02-22T08:28:21.663Z,101366.13
2023-02-22T08:30:49.832Z,101365.91
2023-02-22T08:33:19.533Z,101366.56
2023-02-22T08:35:49.656Z,101365.41
2023-02-22T08:38:19.311Z,101374.84
2023-02-22T08:40:48.482Z,101379.13
2023-02-22T08:43:18.083Z,101391.38
2023-02-22T08:45:46.128Z,101372.78
2023-02-22T08:48:15.139Z,101393.00
2023-02-22T08:50:44.428Z,101385.84
2023-02-22T08:53:13.596Z,101381.34
2023-02-22T08:55:42.092Z,101373.44
2023-02-22T08:58:10.465Z,101389.91
2023-02-22T09:00:40.446Z,101381.69
2023-02-22T09:03:09.093Z,101384.25
2023-02-22T09:05:37.636Z,101390.38
2023-02-22T09:08:05.923Z,101384.09
2023-02-22T09:10:34.680Z,101389.13
2023-02-22T09:13:04.013Z,101392.50
2023-02-22T09:15:32.059Z,101394.22
2023-02-22T09:18:01.579Z,101397.03
2023-02-22T09:20:29.603Z,101390.97
2023-02-22T09:22:57.783Z,101389.44
2023-02-22T09:25:27.258Z,101400.38
2023-02-22T09:27:55.478Z,101403.19
2023-02-22T09:30:26.110Z,101406.66
2023-02-22T09:32:54.598Z,101402.56
2023-02-22T09:35:27.304Z,101405.91
2023-02-22T09:37:56.349Z,101411.06
2023-02-22T09:40:30.076Z,101405.91
2023-02-22T09:43:17.538Z,101407.97
2023-02-22T09:45:49.917Z,101412.72
2023-02-22T09:48:22.195Z,101421.81
2023-02-22T09:50:52.810Z,101423.72
2023-02-22T09:53:29.542Z,101409.69
2023-02-22T09:56:00.181Z,101427.19
2023-02-22T09:58:33.475Z,101426.16
2023-02-22T10:01:14.441Z,101424.38
2023-02-22T10:03:49.534Z,101430.50
2023-02-22T10:06:21.732Z,101435.59
2023-02-22T10:08:50.182Z,101424.56
2023-02-22T10:11:24.402Z,101421.03
2023-02-22T10:13:54.913Z,101436.09
2023-02-22T10:16:24.189Z,101429.63
2023-02-22T10:19:08.560Z,101435.50
2023-02-22T10:21:59.277Z,101437.78
2023-02-22T10:24:38.365Z,101438.72
2023-02-22T10:27:07.133Z,101437.91
2023-02-22T10:29:39.964Z,101447.75
2023-02-22T10:32:10.559Z,101451.91
2023-02-22T10:34:40.923Z,101455.59
2023-02-22T10:37:25.536Z,101445.63
2023-02-22T10:39:56.940Z,101455.91
2023-02-22T10:42:26.745Z,101449.78
2023-02-22T10:44:54.611Z,101458.69
2023-02-22T10:47:22.638Z,101465.91
2023-02-22T10:49:52.386Z,101468.72
2023-02-22T10:52:26.023Z,101470.53
2023-02-22T10:55:01.124Z,101469.56
2023-02-22T10:57:35.036Z,101468.56
2023-02-22T11:00:14.459Z,101480.78
2023-02-22T11:02:43.089Z,101450.13
2023-02-22T11:05:26.414Z,101469.22
2023-02-22T11:08:01.011Z,101480.78
2023-02-22T11:10:32.210Z,101487.84
2023-02-22T11:15:29.570Z,101483.38
2023-02-22T11:18:01.337Z,101485.63
2023-02-22T11:20:29.894Z,101482.06
2023-02-22T11:23:00.983Z,101486.00
2023-02-22T11:25:30.360Z,101482.78
2023-02-22T11:28:00.248Z,101490.03
2023-02-22T11:30:29.415Z,101483.16
2023-02-22T11:32:59.057Z,101490.03
2023-02-22T11:35:36.242Z,101484.78
2023-02-22T11:38:21.176Z,101495.56
2023-02-22T11:41:11.186Z,101491.50
2023-02-22T11:43:39.083Z,101491.22
2023-02-22T11:46:08.503Z,101496.28
2023-02-22T11:48:39.481Z,101498.72
2023-02-22T11:51:18.454Z,101498.97
2023-02-22T11:54:19.535Z,101489.84
2023-02-22T11:56:48.282Z,101495.00
2023-02-22T11:59:27.875Z,101493.63
2023-02-22T12:01:56.961Z,101499.03
2023-02-22T12:04:42.099Z,101493.78
2023-02-22T12:07:19.049Z,101479.28
2023-02-22T12:09:51.524Z,101498.41
2023-02-22T12:12:22.303Z,101502.84
2023-02-22T12:14:55.453Z,101494.59
2023-02-22T12:17:27.552Z,101500.84
2023-02-22T12:19:58.816Z,101500.59
2023-02-22T12:22:28.288Z,101499.84
2023-02-22T12:25:09.857Z,101485.63
2023-02-22T12:27:39.652Z,101499.66
2023-02-22T12:30:09.625Z,101495.22
2023-02-22T12:32:41.770Z,101496.25
2023-02-22T12:35:13.503Z,101510.09
2023-02-22T12:37:50.430Z,101504.94
2023-02-22T12:40:23.575Z,101504.88
2023-02-22T12:42:54.811Z,101509.19
2023-02-22T12:45:27.589Z,101508.38
2023-02-22T12:47:59.271Z,101511.34
2023-02-22T12:50:28.743Z,101505.56
2023-02-22T12:52:58.942Z,101500.75
2023-02-22T12:55:31.679Z,101506.72
2023-02-22T12:58:02.266Z,101501.63
2023-02-22T13:00:34.452Z,101509.84
2023-02-22T13:03:03.218Z,101515.38
2023-02-22T13:05:33.478Z,101514.06
2023-02-22T13:08:07.815Z,101521.84
2023-02-22T13:10:48.532Z,101518.22
2023-02-22T13:13:18.786Z,101518.78
2023-02-22T13:15:49.154Z,101517.31
2023-02-22T13:18:21.285Z,101507.59
2023-02-22T13:20:50.352Z,101514.66
2023-02-22T13:23:20.886Z,101514.09
2023-02-22T13:25:55.253Z,101511.09
2023-02-22T13:28:25.725Z,101512.34
2023-02-22T13:31:02.449Z,101522.31
2023-02-22T13:33:37.975Z,101523.47
2023-02-22T13:36:15.704Z,101508.63
2023-02-22T13:39:09.973Z,101519.56
2023-02-22T13:41:52.974Z,101519.91
2023-02-22T13:44:45.707Z,101521.25
2023-02-22T13:47:41.033Z,101521.59
2023-02-22T13:50:31.561Z,101525.00
2023-02-22T13:52:59.496Z,101519.50
2023-02-22T13:55:29.987Z,101520.94
2023-02-22T13:58:03.141Z,101521.94
2023-02-22T14:00:47.600Z,101510.00
2023-02-22T14:03:40.559Z,101519.91
2023-02-22T14:06:12.609Z,101516.94
2023-02-22T14:08:44.792Z,101518.00
2023-02-22T14:11:52.182Z,101514.31
2023-02-22T14:14:21.473Z,101516.94
2023-02-22T14:17:22.097Z,101517.78
2023-02-22T14:20:05.721Z,101521.41
2023-02-22T14:22:33.809Z,101525.59
2023-02-22T14:25:01.678Z,101520.75
2023-02-22T14:27:40.393Z,101510.69
2023-02-22T14:30:26.072Z,101511.00
2023-02-22T14:32:54.228Z,101510.56
2023-02-22T14:35:30.052Z,101517.44
2023-02-22T14:38:03.916Z,101516.34
2023-02-22T14:40:32.404Z,101513.28
2023-02-22T14:43:03.029Z,101518.50
2023-02-22T14:45:33.928Z,101513.28
2023-02-22T14:48:11.726Z,101514.13
2023-02-22T14:50:44.985Z,101516.38
2023-02-22T14:53:18.256Z,101538.38
2023-02-22T14:55:48.926Z,101525.81
2023-02-22T14:58:18.780Z,101521.06
2023-02-22T15:00:49.242Z,101543.00
2023-02-22T15:03:29.117Z,101533.97
2023-02-22T15:06:00.152Z,101538.34
2023-02-22T15:08:29.246Z,101536.41
2023-02-22T15:10:57.985Z,101536.84
2023-02-22T15:13:26.852Z,101532.56
2023-02-22T15:16:00.610Z,101527.94
2023-02-22T15:18:32.708Z,101529.28
2023-02-22T15:21:06.944Z,101532.34
2023-02-22T15:23:41.718Z,101529.13
2023-02-22T15:26:09.855Z,101542.78
2023-02-22T15:28:38.341Z,101548.97
2023-02-22T15:31:24.975Z,101538.03
2023-02-22T15:33:54.774Z,101531.94
2023-02-22T15:36:23.376Z,101544.03
2023-02-22T15:38:51.618Z,101545.81
2023-02-22T15:41:27.905Z,101538.88
2023-02-22T15:44:03.415Z,101540.94
2023-02-22T15:46:35.200Z,101541.63
2023-02-22T15:49:07.591Z,101543.34
2023-02-22T15:51:35.650Z,101537.22
2023-02-22T15:54:04.255Z,101531.28
2023-02-22T15:56:32.542Z,101532.16
2023-02-22T15:59:00.922Z,101540.56
2023-02-22T16:01:28.872Z,101545.66
2023-02-22T16:03:58.820Z,101543.66
2023-02-22T16:06:29.985Z,101533.84
2023-02-22T16:08:58.140Z,101541.41
2023-02-22T16:29:09.834Z,101535.91
2023-02-22T16:31:38.855Z,101546.19
2023-02-22T16:34:07.579Z,101548.91
2023-02-22T16:36:40.358Z,101563.13
2023-02-22T16:39:08.439Z,101549.00
2023-02-22T16:41:36.293Z,101563.19
2023-02-22T16:44:07.833Z,101565.03
2023-02-22T16:46:37.956Z,101576.63
2023-02-22T16:49:06.083Z,101570.78
2023-02-22T16:51:39.751Z,101573.72
2023-02-22T16:54:07.749Z,101575.53
2023-02-22T16:56:35.653Z,101573.78
2023-02-22T16:59:06.187Z,101569.41
2023-02-22T17:01:35.494Z,101573.78
2023-02-22T17:04:07.473Z,101578.34
2023-02-22T17:06:36.111Z,101578.56
2023-02-22T17:09:04.084Z,101575.31
2023-02-22T17:11:32.224Z,101572.81
2023-02-22T17:14:00.146Z,101582.88
2023-02-22T17:16:28.676Z,101589.19
2023-02-22T17:18:56.652Z,101580.53
2023-02-22T17:21:25.939Z,101596.53
2023-02-22T17:23:53.831Z,101595.03
2023-02-22T17:26:21.738Z,101593.50
2023-02-22T17:28:49.772Z,101593.75
2023-02-22T17:31:20.332Z,101599.97
2023-02-22T17:33:48.243Z,101608.88
2023-02-22T17:36:16.504Z,101597.63
2023-02-22T17:38:45.929Z,101614.31
2023-02-22T17:41:13.815Z,101616.13
2023-02-22T17:43:41.689Z,101620.63
2023-02-22T17:46:09.634Z,101612.78
2023-02-22T17:48:38.299Z,101620.97
2023-02-22T17:51:07.247Z,101616.66
2023-02-22T17:53:35.284Z,101621.25
2023-02-22T17:56:08.101Z,101623.19
2023-02-22T17:58:36.134Z,101620.69
2023-02-22T18:01:04.484Z,101615.56
2023-02-22T18:03:32.488Z,101617.44
2023-02-22T18:06:01.101Z,101632.56
2023-02-22T18:08:29.905Z,101628.19
2023-02-22T18:10:57.823Z,101626.44
2023-02-22T18:13:27.769Z,101626.53
2023-02-22T18:16:00.055Z,101640.63
2023-02-22T18:18:28.350Z,101636.28
2023-02-22T18:20:59.782Z,101644.34
2023-02-22T18:23:28.904Z,101644.34
2023-02-22T18:26:09.569Z,101646.97
2023-02-22T18:28:40.248Z,101647.81
2023-02-22T18:31:09.141Z,101654.84
2023-02-22T18:33:37.334Z,101655.56
2023-02-22T18:36:05.825Z,101659.00
2023-02-22T18:38:33.703Z,101655.34
2023-02-22T18:41:01.737Z,101657.00
2023-02-22T18:43:29.773Z,101658.69
2023-02-22T18:46:07.513Z,101665.63
2023-02-22T18:48:35.436Z,101659.34
2023-02-22T18:51:03.563Z,101662.88
2023-02-22T18:53:31.473Z,101663.81
2023-02-22T18:56:04.221Z,101666.38
2023-02-22T18:58:32.892Z,101663.75
2023-02-22T19:01:01.156Z,101669.97
2023-02-22T19:03:30.578Z,101676.09
2023-02-22T19:06:02.232Z,101676.03
2023-02-22T19:08:32.574Z,101661.91
2023-02-22T19:11:06.404Z,101662.78
2023-02-22T19:13:36.158Z,101666.34
2023-02-22T19:16:04.339Z,101661.94
2023-02-22T19:18:33.768Z,101673.22
2023-02-22T19:21:02.537Z,101665.59
2023-02-22T19:23:34.385Z,101669.13
2023-02-22T19:26:03.553Z,101671.91
2023-02-22T19:28:34.187Z,101673.94
2023-02-22T19:31:12.725Z,101665.41
2023-02-22T19:33:42.109Z,101666.53
2023-02-22T19:36:10.460Z,101669.38
2023-02-22T19:38:38.372Z,101667.81
2023-02-22T19:41:10.496Z,101670.47
2023-02-22T19:43:38.437Z,101666.09
2023-02-22T19:46:06.811Z,101661.72
2023-02-22T19:48:34.762Z,101659.16
2023-02-22T19:51:08.161Z,101667.22
2023-02-22T19:53:36.173Z,101668.16
2023-02-22T19:56:07.093Z,101669.03
2023-02-22T19:58:36.766Z,101666.47
2023-02-22T20:01:12.319Z,101671.78
2023-02-22T20:03:42.025Z,101668.31
2023-02-22T20:06:11.504Z,101641.25
2023-02-22T20:08:42.251Z,101665.75
2023-02-22T20:11:10.499Z,101672.00
2023-02-22T20:13:38.454Z,101672.00
2023-02-22T20:16:07.606Z,101666.72
2023-02-22T20:18:36.642Z,101670.19
2023-02-22T20:21:08.189Z,101673.69
2023-02-22T20:23:40.169Z,101673.69
2023-02-22T20:26:10.339Z,101678.09
2023-02-22T20:28:38.200Z,101677.22
2023-02-22T20:31:11.252Z,101674.47
2023-02-22T20:33:41.667Z,101674.44
2023-02-22T20:36:10.878Z,101681.44
2023-02-22T20:38:41.158Z,101677.88
2023-02-22T20:41:09.399Z,101674.28
2023-02-22T20:43:37.391Z,101679.59
2023-02-22T20:46:06.309Z,101676.06
2023-02-22T20:48:34.378Z,101691.06
2023-02-22T20:51:06.372Z,101689.22
2023-02-22T20:53:34.559Z,101683.91
2023-02-22T20:56:04.344Z,101675.97
2023-02-22T20:58:32.365Z,101682.06
2023-02-22T21:01:05.232Z,101689.09
2023-02-22T21:03:33.802Z,101695.25
2023-02-22T21:06:01.762Z,101691.78
2023-02-22T21:08:31.235Z,101697.06
2023-02-22T21:10:59.305Z,101674.34
2023-02-22T21:13:28.570Z,101699.63
2023-02-22T21:15:56.489Z,101693.34
2023-02-22T21:18:25.127Z,101699.47
2023-02-22T21:20:53.804Z,101707.34
2023-02-22T21:23:21.671Z,101708.09
2023-02-22T21:25:53.082Z,101705.41
2023-02-22T21:28:21.045Z,101710.69
2023-02-22T21:30:50.368Z,101720.31
2023-02-22T21:33:18.309Z,101720.25
2023-02-22T21:35:47.252Z,101727.31
2023-02-22T21:38:15.490Z,101715.84
2023-02-22T21:40:44.581Z,101721.13
2023-02-22T21:43:13.140Z,101724.66
2023-02-22T21:45:41.042Z,101716.75
2023-02-22T21:48:10.382Z,101717.69
2023-02-22T21:50:38.268Z,101719.56
2023-02-22T21:53:07.484Z,101716.97
2023-02-22T21:55:35.815Z,101711.72
2023-02-22T21:58:03.730Z,101717.94
2023-02-22T22:00:38.169Z,101724.09
2023-02-22T22:03:08.881Z,101711.63
2023-02-22T22:05:45.184Z,101715.94
2023-02-22T22:08:19.365Z,101712.44
2023-02-22T22:10:55.361Z,101715.09
2023-02-22T22:13:23.382Z,101722.13
2023-02-22T22:15:51.437Z,101711.41
2023-02-22T22:18:19.419Z,101711.31
2023-02-22T22:20:51.649Z,101714.81
2023-02-22T22:23:19.614Z,101707.69
2023-02-22T22:25:51.050Z,101714.78
2023-02-22T22:28:18.922Z,101719.22
2023-02-22T22:30:46.972Z,101714.81
2023-02-22T22:33:17.232Z,101719.22
2023-02-22T22:35:45.219Z,101722.75
2023-02-22T22:38:15.489Z,101721.88
2023-02-22T22:40:43.456Z,101720.06
2023-02-22T22:43:11.400Z,101728.06
2023-02-22T22:45:40.083Z,101724.56
2023-02-22T22:48:08.466Z,101736.97
2023-02-22T22:50:37.692Z,101737.94
2023-02-22T22:53:05.773Z,101736.22
2023-02-22T22:55:35.413Z,101732.72
2023-02-22T22:58:03.327Z,101738.22
2023-02-22T23:00:32.610Z,101740.97
2023-02-22T23:03:00.578Z,101739.19
2023-02-22T23:05:29.380Z,101739.16
2023-02-22T23:07:57.444Z,101734.69
2023-02-22T23:10:28.148Z,101746.09
2023-02-22T23:12:57.555Z,101748.69
2023-02-22T23:15:25.646Z,101741.53
2023-02-22T23:17:56.082Z,101742.34
2023-02-22T23:20:26.280Z,101749.38
2023-02-22T23:22:54.263Z,101746.72
2023-02-22T23:25:22.238Z,101754.69
2023-02-22T23:27:50.275Z,101745.94
2023-02-22T23:30:20.222Z,101750.41
2023-02-22T23:32:48.425Z,101745.94
2023-02-22T23:35:16.508Z,101752.88
2023-02-22T23:37:46.247Z,101752.78
2023-02-22T23:40:17.035Z,101754.47
2023-02-22T23:42:49.117Z,101758.97
2023-02-22T23:45:22.777Z,101747.63
2023-02-22T23:47:54.871Z,101758.13
2023-02-22T23:50:24.204Z,101757.28
2023-02-22T23:52:56.958Z,101763.56
2023-02-22T23:55:25.285Z,101763.56
2023-02-22T23:57:57.127Z,101763.56
